Time;durP1;ratioP1;P1;durP2;ratioP2;P2;SDS_P1;SDS_P2;PMS_P1;PMS_P2;Temp;Humidity;BMP_temperature;BMP_pressure;BME280_temperature;BME280_humidity;BME280_pressure;Samples;Min_cycle;Max_cycle;Signal;HPM_P1;HPM_P2
2021/12/03 00:00:59;;;;;;;4.43;0.70;;;1.80;99.90;;;;;;6241389;22;20008;-62
2021/12/03 00:03:25;;;;;;;6.65;0.98;;;1.80;99.90;;;;;;6241249;22;20031;-62
2021/12/03 00:05:53;;;;;;;2.90;0.75;;;1.80;99.90;;;;;;6241214;22;20020;-63
2021/12/03 00:08:19;;;;;;;1.92;0.60;;;1.80;99.90;;;;;;6242459;22;20123;-62
2021/12/03 00:10:50;;;;;;;2.72;1.20;;;1.80;99.90;;;;;;6241134;22;20042;-62
2021/12/03 00:13:16;;;;;;;2.42;0.88;;;1.70;99.90;;;;;;6241076;22;20058;-62
2021/12/03 00:15:41;;;;;;;3.90;1.00;;;1.70;99.90;;;;;;6240576;22;20004;-62
2021/12/03 00:18:07;;;;;;;3.15;0.60;;;1.70;99.90;;;;;;6242156;22;20134;-62
2021/12/03 00:20:35;;;;;;;3.00;1.35;;;1.70;99.90;;;;;;6242041;22;20019;-62
2021/12/03 00:23:03;;;;;;;3.08;1.10;;;1.70;99.90;;;;;;6240681;22;20019;-62
2021/12/03 00:25:30;;;;;;;2.72;0.80;;;1.70;99.90;;;;;;6242251;22;20019;-62
2021/12/03 00:27:55;;;;;;;4.05;1.65;;;1.70;99.90;;;;;;6241175;22;20598;-62
2021/12/03 00:30:21;;;;;;;2.55;1.05;;;1.70;99.90;;;;;;6240448;22;20039;-62
2021/12/03 00:32:48;;;;;;;3.88;1.40;;;1.70;99.90;;;;;;6240828;22;20326;-62
2021/12/03 00:35:16;;;;;;;5.97;1.98;;;1.60;99.90;;;;;;6240001;23;20008;-63
2021/12/03 00:37:42;;;;;;;4.50;1.33;;;1.60;99.90;;;;;;6239078;22;20004;-63
2021/12/03 00:40:10;;;;;;;7.57;1.95;;;1.60;99.90;;;;;;6241822;22;20018;-62
2021/12/03 00:42:37;;;;;;;3.58;1.20;;;1.70;99.90;;;;;;6241104;22;20509;-62
2021/12/03 00:45:05;;;;;;;4.47;1.40;;;1.70;99.90;;;;;;6239891;23;20020;-62
2021/12/03 00:47:30;;;;;;;5.18;1.55;;;1.60;99.90;;;;;;6241751;22;20087;-61
2021/12/03 00:49:56;;;;;;;5.65;2.10;;;1.70;99.90;;;;;;6240954;22;20043;-62
2021/12/03 00:52:22;;;;;;;4.38;1.58;;;1.60;99.90;;;;;;6238934;23;20098;-62
2021/12/03 00:54:49;;;;;;;7.03;1.40;;;1.60;99.90;;;;;;6238304;22;20012;-62
2021/12/03 00:57:14;;;;;;;2.90;1.35;;;1.60;99.90;;;;;;6241609;22;20022;-64
2021/12/03 00:59:40;;;;;;;5.55;1.80;;;1.60;99.90;;;;;;6240468;22;20559;-63
2021/12/03 01:02:06;;;;;;;3.80;1.30;;;1.60;99.90;;;;;;6242028;22;20009;-62
2021/12/03 01:04:31;;;;;;;6.75;1.38;;;1.60;99.90;;;;;;6239281;23;20008;-61
2021/12/03 01:06:57;;;;;;;3.42;1.45;;;1.60;99.90;;;;;;6240044;22;20015;-62
2021/12/03 01:09:23;;;;;;;4.18;1.80;;;1.60;99.90;;;;;;6241656;22;20012;-61
2021/12/03 01:11:49;;;;;;;4.50;1.98;;;1.60;99.90;;;;;;6240751;22;20062;-62
2021/12/03 01:14:17;;;;;;;3.67;1.55;;;1.60;99.90;;;;;;6240009;23;20008;-62
2021/12/03 01:16:43;;;;;;;3.60;0.80;;;1.60;99.90;;;;;;6240018;22;20496;-62
2021/12/03 01:19:09;;;;;;;5.10;1.40;;;1.60;99.90;;;;;;6241481;22;20087;-63
2021/12/03 01:21:35;;;;;;;3.80;1.25;;;1.70;99.90;;;;;;6240678;22;20031;-61
2021/12/03 01:24:00;;;;;;;3.55;1.40;;;1.60;99.90;;;;;;6241117;22;20000;-61
2021/12/03 01:26:26;;;;;;;3.38;0.90;;;1.70;99.90;;;;;;6241628;22;20350;-62
2021/12/03 01:28:52;;;;;;;5.28;1.40;;;1.70;99.90;;;;;;6240857;22;20036;-62
2021/12/03 01:31:18;;;;;;;5.68;1.38;;;1.70;99.90;;;;;;6239841;22;20004;-62
2021/12/03 01:33:45;;;;;;;7.65;2.03;;;1.70;99.90;;;;;;6240422;22;20019;-62
2021/12/03 01:36:11;;;;;;;7.07;1.20;;;1.70;99.90;;;;;;6239362;23;20004;-63
2021/12/03 01:38:38;;;;;;;2.80;1.20;;;1.70;99.90;;;;;;6240481;22;20008;-62
2021/12/03 01:41:04;;;;;;;3.20;1.10;;;1.70;99.90;;;;;;6241258;22;20015;-62
2021/12/03 01:43:30;;;;;;;6.68;1.10;;;1.70;99.90;;;;;;6241440;22;20031;-61
2021/12/03 01:46:02;;;;;;;4.50;1.02;;;1.70;99.90;;;;;;6240177;22;20008;-62
2021/12/03 01:48:28;;;;;;;4.25;0.98;;;1.70;99.90;;;;;;6240681;22;20023;-62
2021/12/03 01:50:55;;;;;;;4.70;1.08;;;1.70;99.90;;;;;;6239459;22;20020;-62
2021/12/03 01:53:25;;;;;;;5.00;0.88;;;1.80;99.90;;;;;;6239156;23;20450;-62
2021/12/03 01:55:52;;;;;;;3.70;1.15;;;1.80;99.90;;;;;;6237714;22;20019;-62
2021/12/03 01:58:18;;;;;;;5.95;1.17;;;1.80;99.90;;;;;;6240809;22;20012;-63
2021/12/03 02:00:54;;;;;;;5.88;1.40;;;1.80;99.90;;;;;;6239566;22;20016;-62
2021/12/03 02:03:23;;;;;;;3.42;0.73;;;1.90;99.90;;;;;;6240385;22;20688;-63
2021/12/03 02:05:50;;;;;;;5.85;0.75;;;1.90;99.90;;;;;;6239933;22;20016;-62
2021/12/03 02:08:16;;;;;;;0.90;0.25;;;1.90;99.90;;;;;;6241165;22;20012;-62
2021/12/03 02:10:43;;;;;;;7.20;0.77;;;1.90;99.90;;;;;;6240237;22;20320;-62
2021/12/03 02:13:11;;;;;;;4.35;0.80;;;1.90;99.90;;;;;;6241096;22;20012;-62
2021/12/03 02:15:37;;;;;;;1.95;0.50;;;1.90;99.90;;;;;;6240114;22;20019;-62
2021/12/03 02:18:04;;;;;;;2.00;0.60;;;1.90;99.90;;;;;;6239885;22;20015;-63
2021/12/03 02:20:29;;;;;;;3.80;0.65;;;1.90;99.90;;;;;;6240479;22;20070;-63
2021/12/03 02:22:55;;;;;;;2.88;0.90;;;1.90;99.90;;;;;;6239801;22;20015;-63
2021/12/03 02:25:23;;;;;;;3.83;0.47;;;1.90;99.90;;;;;;6240547;22;20096;-65
2021/12/03 02:27:55;;;;;;;6.68;0.68;;;1.90;99.90;;;;;;6239995;22;20504;-61
2021/12/03 02:30:22;;;;;;;3.35;0.40;;;1.90;99.90;;;;;;6240529;22;20010;-63
2021/12/03 02:32:50;;;;;;;0.77;0.43;;;2.00;99.90;;;;;;6239832;22;20453;-63
2021/12/03 02:35:17;;;;;;;1.48;0.40;;;1.90;99.90;;;;;;6238668;23;20008;-62
2021/12/03 02:37:43;;;;;;;8.38;0.90;;;2.00;99.90;;;;;;6239843;22;20024;-63
2021/12/03 02:40:10;;;;;;;5.70;0.73;;;2.00;99.90;;;;;;6240685;22;20338;-61
2021/12/03 02:42:36;;;;;;;2.38;0.30;;;2.00;99.90;;;;;;6240446;22;20008;-62
2021/12/03 02:45:04;;;;;;;2.08;0.40;;;2.00;99.90;;;;;;6239693;22;20374;-62
2021/12/03 02:47:29;;;;;;;4.82;0.80;;;2.00;99.90;;;;;;6240822;22;20047;-62
2021/12/03 02:49:55;;;;;;;5.50;0.68;;;2.00;99.90;;;;;;6239434;22;20016;-62
2021/12/03 02:52:21;;;;;;;5.43;0.70;;;2.10;99.90;;;;;;6240811;22;20042;-62
2021/12/03 02:54:46;;;;;;;4.80;0.93;;;2.10;99.90;;;;;;6239608;22;20012;-62
2021/12/03 02:57:12;;;;;;;9.85;1.67;;;2.10;99.90;;;;;;6240495;22;20004;-62
2021/12/03 02:59:38;;;;;;;6.28;1.25;;;2.10;99.90;;;;;;6239654;22;20035;-62
2021/12/03 03:02:04;;;;;;;4.20;1.00;;;2.10;99.90;;;;;;6240337;22;20062;-62
2021/12/03 03:04:29;;;;;;;2.28;1.05;;;2.10;99.90;;;;;;6240383;22;20009;-61
2021/12/03 03:06:55;;;;;;;2.03;0.60;;;2.10;99.90;;;;;;6238195;22;20012;-64
2021/12/03 03:09:21;;;;;;;2.58;1.08;;;2.10;99.90;;;;;;6240638;22;20016;-64
2021/12/03 03:11:46;;;;;;;5.80;1.42;;;2.10;99.90;;;;;;6239518;22;20016;-62
2021/12/03 03:14:12;;;;;;;5.03;1.30;;;2.10;99.90;;;;;;6239901;22;20012;-62
2021/12/03 03:16:38;;;;;;;7.68;0.75;;;2.10;99.90;;;;;;6238057;22;20016;-62
2021/12/03 03:19:16;;;;;;;5.68;1.40;;;2.10;99.90;;;;;;6240030;22;20074;-62
2021/12/03 03:21:43;;;;;;;4.60;1.20;;;2.10;99.90;;;;;;6239264;22;20008;-63
2021/12/03 03:24:09;;;;;;;10.38;1.55;;;2.10;99.90;;;;;;6240379;22;20016;-62
2021/12/03 03:26:38;;;;;;;5.45;1.40;;;2.10;99.90;;;;;;6239820;22;19996;-63
2021/12/03 03:29:13;;;;;;;1.92;0.80;;;2.10;99.90;;;;;;6239880;22;20398;-63
2021/12/03 03:31:40;;;;;;;4.03;1.00;;;2.00;99.90;;;;;;6238947;22;20092;-64
2021/12/03 03:34:07;;;;;;;8.50;0.98;;;2.10;99.90;;;;;;6238810;23;20577;-62
2021/12/03 03:36:39;;;;;;;2.88;1.73;;;2.10;99.90;;;;;;6239871;22;20054;-62
2021/12/03 03:39:07;;;;;;;7.35;1.60;;;2.10;99.90;;;;;;6239563;22;20000;-62
2021/12/03 03:41:33;;;;;;;3.33;0.88;;;2.10;99.90;;;;;;6240182;22;20000;-64
2021/12/03 03:43:59;;;;;;;4.35;1.52;;;2.20;99.90;;;;;;6237739;22;20054;-62
2021/12/03 03:46:25;;;;;;;3.47;1.65;;;2.20;99.90;;;;;;6239966;22;20004;-62
2021/12/03 03:48:50;;;;;;;5.78;1.38;;;2.20;99.90;;;;;;6239299;22;20008;-63
2021/12/03 03:51:16;;;;;;;4.22;1.33;;;2.20;99.90;;;;;;6238986;22;20008;-62
2021/12/03 03:53:42;;;;;;;5.68;1.60;;;2.20;99.90;;;;;;6239315;22;20319;-62
2021/12/03 03:56:09;;;;;;;5.95;1.70;;;2.30;99.90;;;;;;6240810;22;20012;-62
2021/12/03 03:58:37;;;;;;;5.72;1.83;;;2.30;99.90;;;;;;6242440;22;20053;-61
2021/12/03 04:01:05;;;;;;;5.47;2.08;;;2.30;99.90;;;;;;6240903;22;20004;-62
2021/12/03 04:03:30;;;;;;;3.63;1.17;;;2.40;99.90;;;;;;6241661;22;20004;-62
2021/12/03 04:05:57;;;;;;;12.38;1.90;;;2.40;99.90;;;;;;6240595;22;20027;-62
2021/12/03 04:08:23;;;;;;;4.50;2.25;;;2.40;99.90;;;;;;6242091;22;20008;-61
2021/12/03 04:10:49;;;;;;;4.18;1.95;;;2.40;99.90;;;;;;6236576;22;20106;-63
2021/12/03 04:13:15;;;;;;;6.07;1.52;;;2.40;99.90;;;;;;6242231;22;20011;-61
2021/12/03 04:15:42;;;;;;;5.55;1.77;;;2.50;99.90;;;;;;6240404;22;20388;-62
2021/12/03 04:18:08;;;;;;;6.10;1.92;;;2.50;99.90;;;;;;6242208;22;20377;-62
2021/12/03 04:20:35;;;;;;;3.67;1.60;;;2.50;99.90;;;;;;6241797;22;20445;-63
2021/12/03 04:23:01;;;;;;;4.90;1.27;;;2.50;99.90;;;;;;6240785;22;20008;-63
2021/12/03 04:25:27;;;;;;;6.38;1.80;;;2.50;99.90;;;;;;6238543;23;20079;-63
2021/12/03 04:27:52;;;;;;;5.65;2.03;;;2.50;99.90;;;;;;6241156;22;20038;-63
2021/12/03 04:30:23;;;;;;;5.28;2.22;;;2.50;99.90;;;;;;6241625;22;20066;-63
2021/12/03 04:32:50;;;;;;;6.45;1.75;;;2.60;99.90;;;;;;6240861;22;20019;-63
2021/12/03 04:35:16;;;;;;;6.80;1.98;;;2.60;99.90;;;;;;6240957;22;20008;-63
2021/12/03 04:37:42;;;;;;;4.95;2.42;;;2.60;99.90;;;;;;6240683;22;20054;-63
2021/12/03 04:40:10;;;;;;;5.00;2.47;;;2.50;99.90;;;;;;6241747;22;20004;-63
2021/12/03 04:42:36;;;;;;;6.13;2.00;;;2.50;99.90;;;;;;6241899;22;20015;-63
2021/12/03 04:45:04;;;;;;;5.75;2.60;;;2.60;99.90;;;;;;6240599;22;20058;-63
2021/12/03 04:47:30;;;;;;;3.55;1.95;;;2.60;99.90;;;;;;6241503;22;20100;-63
2021/12/03 04:49:56;;;;;;;6.43;1.80;;;2.60;99.90;;;;;;6240470;22;20027;-63
2021/12/03 04:52:21;;;;;;;7.45;2.58;;;2.50;99.90;;;;;;6241556;22;20022;-63
2021/12/03 04:54:47;;;;;;;4.05;1.70;;;2.60;99.90;;;;;;6238901;22;20059;-62
2021/12/03 04:57:13;;;;;;;7.72;1.83;;;2.70;99.90;;;;;;6241175;22;20011;-62
2021/12/03 04:59:39;;;;;;;7.43;2.60;;;2.60;99.90;;;;;;6240902;22;20004;-63
2021/12/03 05:02:04;;;;;;;5.93;2.58;;;2.70;99.90;;;;;;6241418;22;20110;-62
2021/12/03 05:04:36;;;;;;;4.82;1.60;;;2.70;99.90;;;;;;6241128;22;20010;-62
2021/12/03 05:09:36;;;;;;;6.57;1.60;;;2.70;99.90;;;;;;6243481;22;20004;-62
2021/12/03 05:12:03;;;;;;;4.28;1.80;;;2.70;99.90;;;;;;6238569;22;20438;-62
2021/12/03 05:14:29;;;;;;;5.93;2.83;;;2.80;99.90;;;;;;6241108;22;20015;-63
2021/12/03 05:16:55;;;;;;;9.43;2.28;;;2.80;99.90;;;;;;6239549;22;20062;-62
2021/12/03 05:19:21;;;;;;;4.40;1.73;;;2.80;99.90;;;;;;6241054;22;20374;-62
2021/12/03 05:21:48;;;;;;;6.10;1.90;;;2.80;99.90;;;;;;6240400;22;20008;-62
2021/12/03 05:24:15;;;;;;;2.80;1.58;;;2.80;99.90;;;;;;6241696;22;20019;-62
2021/12/03 05:26:41;;;;;;;6.85;2.00;;;2.80;99.90;;;;;;6239694;22;20112;-62
2021/12/03 05:29:08;;;;;;;3.58;1.83;;;2.80;99.90;;;;;;6241338;22;20024;-63
2021/12/03 05:31:35;;;;;;;3.97;1.52;;;2.80;99.90;;;;;;6240971;22;20004;-62
2021/12/03 05:34:02;;;;;;;4.47;2.10;;;2.90;99.90;;;;;;6238603;22;20000;-62
2021/12/03 05:36:28;;;;;;;5.72;2.33;;;2.90;99.90;;;;;;6241022;22;20508;-62
2021/12/03 05:38:54;;;;;;;17.20;3.35;;;2.90;99.90;;;;;;6240409;22;20004;-63
2021/12/03 05:41:20;;;;;;;9.32;2.70;;;2.90;99.90;;;;;;6241217;22;20004;-63
2021/12/03 05:43:45;;;;;;;11.60;2.33;;;2.80;99.90;;;;;;6239873;22;20011;-63
2021/12/03 05:46:11;;;;;;;10.95;2.50;;;2.90;99.90;;;;;;6241147;22;20071;-62
2021/12/03 05:48:37;;;;;;;8.00;2.67;;;2.90;99.90;;;;;;6240800;22;20442;-62
2021/12/03 05:51:03;;;;;;;11.95;3.00;;;3.00;99.90;;;;;;6238362;22;20011;-62
2021/12/03 05:53:28;;;;;;;14.65;3.13;;;3.00;99.90;;;;;;6241141;22;20015;-62
2021/12/03 05:55:54;;;;;;;14.85;2.80;;;3.00;99.90;;;;;;6238296;22;20382;-63
2021/12/03 05:58:20;;;;;;;12.07;3.95;;;3.10;99.90;;;;;;6241346;22;20058;-63
2021/12/03 06:00:47;;;;;;;10.82;3.33;;;3.20;99.90;;;;;;6239827;22;20048;-62
2021/12/03 06:03:13;;;;;;;12.00;3.88;;;3.20;99.90;;;;;;6240847;22;20008;-62
2021/12/03 06:05:40;;;;;;;14.77;2.90;;;3.20;99.90;;;;;;6239961;22;20020;-66
2021/12/03 06:08:07;;;;;;;20.90;3.97;;;3.20;99.90;;;;;;6241103;22;20062;-62
2021/12/03 06:10:33;;;;;;;12.63;3.85;;;3.20;99.90;;;;;;6241282;22;20004;-63
2021/12/03 06:12:59;;;;;;;8.88;2.85;;;3.20;99.90;;;;;;6238139;22;20389;-62
2021/12/03 06:15:26;;;;;;;11.68;3.35;;;3.20;99.90;;;;;;6241211;22;20064;-62
2021/12/03 06:17:52;;;;;;;9.38;2.95;;;3.30;99.90;;;;;;6239386;22;20008;-62
2021/12/03 06:20:18;;;;;;;10.13;3.15;;;3.30;99.90;;;;;;6238782;22;20516;-62
2021/12/03 06:22:44;;;;;;;13.13;3.00;;;3.30;99.90;;;;;;6239780;22;20065;-63
2021/12/03 06:25:12;;;;;;;12.63;3.40;;;3.30;99.90;;;;;;6240689;22;20015;-62
2021/12/03 06:27:38;;;;;;;13.40;3.15;;;3.30;99.90;;;;;;6240815;22;20015;-62
2021/12/03 06:30:12;;;;;;;11.48;3.13;;;3.30;99.90;;;;;;6240120;22;20012;-63
2021/12/03 06:32:39;;;;;;;12.80;2.75;;;3.30;99.90;;;;;;6240685;22;20035;-62
2021/12/03 06:35:07;;;;;;;13.60;2.70;;;3.30;99.90;;;;;;6239875;22;20114;-62
2021/12/03 06:37:33;;;;;;;9.63;3.05;;;3.30;99.90;;;;;;6241070;22;20343;-62
2021/12/03 06:39:59;;;;;;;20.10;3.08;;;3.30;99.90;;;;;;6239429;22;20016;-62
2021/12/03 06:42:25;;;;;;;9.02;3.17;;;3.30;99.90;;;;;;6240285;22;20386;-63
2021/12/03 06:44:51;;;;;;;15.55;3.72;;;3.40;99.90;;;;;;6239717;22;20012;-62
2021/12/03 06:47:16;;;;;;;17.38;3.28;;;3.30;99.90;;;;;;6239512;22;20110;-62
2021/12/03 06:49:42;;;;;;;8.43;3.10;;;3.30;99.90;;;;;;6239617;22;20015;-63
2021/12/03 06:52:11;;;;;;;10.48;3.20;;;3.40;99.90;;;;;;6238978;23;20012;-62
2021/12/03 06:54:37;;;;;;;13.15;2.42;;;3.30;99.90;;;;;;6241042;22;20461;-62
2021/12/03 06:57:06;;;;;;;17.73;3.67;;;3.30;99.90;;;;;;6238948;22;20012;-63
2021/12/03 06:59:32;;;;;;;9.15;3.05;;;3.30;99.90;;;;;;6239263;22;20019;-63
2021/12/03 07:01:58;;;;;;;13.95;3.35;;;3.40;99.90;;;;;;6239165;22;20037;-63
2021/12/03 07:04:24;;;;;;;9.63;2.63;;;3.40;99.90;;;;;;6239057;23;20006;-63
2021/12/03 07:06:50;;;;;;;16.08;4.80;;;3.40;99.90;;;;;;6239428;22;20012;-62
2021/12/03 07:09:16;;;;;;;11.15;2.53;;;3.50;99.90;;;;;;6240472;22;20075;-63
2021/12/03 07:11:42;;;;;;;13.43;2.60;;;3.50;99.90;;;;;;6239657;22;20039;-63
2021/12/03 07:14:08;;;;;;;5.25;2.30;;;3.50;99.90;;;;;;6240297;22;20004;-63
2021/12/03 07:16:34;;;;;;;10.13;2.70;;;3.50;99.90;;;;;;6240426;22;20004;-62
2021/12/03 07:19:00;;;;;;;9.38;2.58;;;3.50;99.90;;;;;;6239241;22;21499;-63
2021/12/03 07:21:26;;;;;;;7.07;2.40;;;3.50;99.90;;;;;;6240864;22;20004;-63
2021/12/03 07:23:52;;;;;;;6.50;2.17;;;3.50;99.90;;;;;;6238733;22;20401;-62
2021/12/03 07:26:19;;;;;;;16.63;3.00;;;3.50;99.90;;;;;;6239638;22;20482;-63
2021/12/03 07:28:45;;;;;;;16.00;3.08;;;3.50;99.90;;;;;;6239103;22;20327;-63
2021/12/03 07:31:11;;;;;;;6.60;2.45;;;3.50;99.90;;;;;;6241352;22;20035;-62
2021/12/03 07:33:38;;;;;;;7.90;1.75;;;3.50;99.90;;;;;;6241814;22;20008;-62
2021/12/03 07:36:05;;;;;;;13.73;2.30;;;3.50;99.90;;;;;;6238983;22;20098;-63
2021/12/03 07:38:31;;;;;;;11.95;2.20;;;3.40;99.90;;;;;;6240152;23;20012;-62
2021/12/03 07:40:57;;;;;;;11.23;2.30;;;3.50;99.90;;;;;;6239361;22;20015;-62
2021/12/03 07:43:23;;;;;;;10.82;2.15;;;3.40;99.90;;;;;;6241991;22;20004;-62
2021/12/03 07:45:49;;;;;;;10.90;2.50;;;3.40;99.90;;;;;;6241098;22;20450;-62
2021/12/03 07:48:15;;;;;;;14.55;3.58;;;3.50;99.90;;;;;;6242396;22;20395;-63
2021/12/03 07:50:42;;;;;;;10.10;2.75;;;3.50;99.90;;;;;;6240593;22;20019;-64
2021/12/03 07:53:09;;;;;;;18.00;2.70;;;3.50;99.90;;;;;;6241954;22;20019;-62
2021/12/03 07:55:35;;;;;;;8.27;2.53;;;3.50;99.90;;;;;;6240120;23;20015;-62
2021/12/03 07:58:04;;;;;;;11.52;2.38;;;3.50;99.90;;;;;;6240920;22;20111;-63
2021/12/03 08:00:30;;;;;;;9.52;1.83;;;3.50;99.90;;;;;;6242246;22;20012;-63
2021/12/03 08:02:55;;;;;;;11.55;2.72;;;3.50;99.90;;;;;;6240872;22;20012;-62
2021/12/03 08:05:21;;;;;;;6.43;2.20;;;3.50;99.90;;;;;;6241734;22;20027;-62
2021/12/03 08:07:47;;;;;;;6.93;2.28;;;3.50;99.90;;;;;;6241120;22;20458;-63
2021/12/03 08:10:14;;;;;;;10.15;2.33;;;3.50;99.90;;;;;;6241648;22;20023;-62
2021/12/03 08:12:41;;;;;;;6.97;2.00;;;3.50;99.90;;;;;;6242155;22;20081;-62
2021/12/03 08:15:07;;;;;;;10.68;1.70;;;3.50;99.90;;;;;;6241417;22;20012;-63
2021/12/03 08:17:34;;;;;;;9.32;2.50;;;3.50;99.90;;;;;;6242394;22;20414;-62
2021/12/03 08:19:59;;;;;;;6.50;1.95;;;3.50;99.90;;;;;;6241282;22;20374;-62
2021/12/03 08:22:25;;;;;;;9.32;2.03;;;3.50;99.90;;;;;;6242461;22;20123;-62
2021/12/03 08:24:51;;;;;;;10.15;2.50;;;3.50;99.90;;;;;;6240889;22;20035;-62
2021/12/03 08:27:16;;;;;;;7.45;2.33;;;3.50;99.90;;;;;;6240434;22;20012;-64
2021/12/03 08:29:42;;;;;;;10.20;2.17;;;3.50;99.90;;;;;;6235628;22;20008;-64
2021/12/03 08:32:10;;;;;;;7.32;2.30;;;3.60;99.90;;;;;;6237680;23;20082;-62
2021/12/03 08:34:36;;;;;;;20.35;3.72;;;3.60;99.90;;;;;;6240181;22;20035;-62
2021/12/03 08:37:02;;;;;;;8.50;2.30;;;3.60;99.90;;;;;;6238915;22;20008;-62
2021/12/03 08:39:29;;;;;;;14.57;2.10;;;3.60;99.90;;;;;;6236885;22;20362;-62
2021/12/03 08:41:55;;;;;;;7.78;2.65;;;3.60;99.90;;;;;;6238152;22;20019;-62
2021/12/03 08:44:21;;;;;;;16.25;3.00;;;3.70;99.90;;;;;;6239162;22;20299;-62
2021/12/03 08:46:51;;;;;;;8.93;2.28;;;3.70;99.90;;;;;;6236196;22;20090;-61
2021/12/03 08:49:31;;;;;;;8.02;2.95;;;3.70;99.90;;;;;;6238307;22;20019;-63
2021/12/03 08:57:14;;;;;;;19.17;3.92;;;3.80;99.90;;;;;;6237246;22;20023;-62
2021/12/03 08:59:40;;;;;;;17.77;3.63;;;3.80;99.90;;;;;;6236839;22;20531;-64
2021/12/03 09:02:06;;;;;;;16.15;3.95;;;3.80;99.90;;;;;;6237845;22;20000;-61
2021/12/03 09:04:32;;;;;;;16.63;2.75;;;3.80;99.90;;;;;;6238998;22;20393;-63
2021/12/03 09:06:58;;;;;;;21.23;3.17;;;3.90;99.90;;;;;;6237302;22;20000;-62
2021/12/03 09:09:24;;;;;;;12.18;2.72;;;3.90;99.90;;;;;;6240373;22;20099;-62
2021/12/03 09:11:50;;;;;;;18.20;2.72;;;3.90;99.90;;;;;;6238986;22;20083;-62
2021/12/03 09:14:23;;;;;;;16.65;3.92;;;4.00;99.90;;;;;;6238881;22;20039;-62
2021/12/03 09:16:56;;;;;;;10.95;2.33;;;4.00;99.90;;;;;;6237582;22;20074;-62
2021/12/03 09:19:27;;;;;;;9.32;2.63;;;4.00;99.90;;;;;;6240179;22;20027;-62
2021/12/03 09:21:53;;;;;;;11.57;2.08;;;4.00;99.90;;;;;;6239611;22;20008;-62
2021/12/03 09:24:26;;;;;;;13.52;3.85;;;4.10;99.90;;;;;;6237415;22;20536;-64
2021/12/03 09:26:51;;;;;;;16.38;2.65;;;4.20;99.90;;;;;;6235706;22;20014;-62
2021/12/03 09:29:24;;;;;;;23.45;4.05;;;4.20;99.90;;;;;;6237869;22;20028;-62
2021/12/03 09:31:50;;;;;;;14.43;3.85;;;4.20;99.90;;;;;;6234348;22;20008;-62
2021/12/03 09:34:19;;;;;;;11.15;1.95;;;4.20;99.90;;;;;;6238103;22;20004;-63
2021/12/03 09:36:44;;;;;;;9.50;2.05;;;4.20;99.90;;;;;;6236088;22;20092;-62
2021/12/03 09:39:20;;;;;;;6.90;1.90;;;4.20;99.90;;;;;;6239069;22;20032;-61
2021/12/03 09:41:47;;;;;;;7.97;1.60;;;4.20;99.90;;;;;;6236896;22;20032;-62
2021/12/03 09:44:13;;;;;;;9.63;1.85;;;4.20;99.90;;;;;;6238935;22;20492;-63
2021/12/03 09:46:39;;;;;;;9.20;1.77;;;4.20;99.90;;;;;;6239226;22;20016;-62
2021/12/03 09:51:39;;;;;;;11.00;2.53;;;4.30;99.90;;;;;;6239015;22;20016;-62
2021/12/03 09:54:22;;;;;;;9.65;2.22;;;4.30;99.90;;;;;;6238606;22;20662;-62
2021/12/03 09:56:50;;;;;;;14.82;2.28;;;4.40;99.90;;;;;;6238057;22;20031;-62
2021/12/03 10:02:47;;;;;;;19.65;2.03;;;4.50;99.90;;;;;;6238250;22;20012;-64
2021/12/03 10:13:23;;;;;;;12.15;2.25;;;4.50;99.90;;;;;;6236359;22;20043;-64
2021/12/03 10:21:38;;;;;;;20.00;2.10;;;4.30;99.90;;;;;;6238409;22;20395;-62
2021/12/03 10:27:21;;;;;;;13.00;2.05;;;4.40;99.90;;;;;;6238653;22;20446;-62
2021/12/03 10:30:09;;;;;;;21.08;2.58;;;4.30;99.90;;;;;;6235251;22;20012;-64
2021/12/03 10:32:43;;;;;;;6.95;1.75;;;4.20;99.90;;;;;;6238538;22;20012;-63
2021/12/03 10:35:36;;;;;;;11.52;2.72;;;4.30;99.90;;;;;;6237878;22;20004;-63
2021/12/03 10:43:21;;;;;;;12.38;1.67;;;4.10;99.90;;;;;;6238519;22;20020;-63
2021/12/03 10:48:45;;;;;;;9.48;2.10;;;4.10;99.90;;;;;;6240992;22;20000;-62
2021/12/03 10:51:22;;;;;;;7.35;2.22;;;4.10;99.90;;;;;;6238194;22;20012;-62
2021/12/03 10:53:58;;;;;;;10.70;2.13;;;4.10;99.90;;;;;;6237327;22;20023;-62
2021/12/03 10:56:40;;;;;;;9.13;2.60;;;4.10;99.90;;;;;;6234736;22;20019;-62
2021/12/03 11:41:19;;;;;;;;;;;4.90;99.90;;;;;;6239573;22;20438;-63
2021/12/03 12:29:28;;;;;;;7.72;1.98;;;5.30;99.90;;;;;;6241331;22;20007;-64
2021/12/03 12:34:55;;;;;;;3.53;1.10;;;5.40;99.90;;;;;;6240685;22;20024;-62
2021/12/03 12:40:06;;;;;;;4.65;1.50;;;5.50;99.90;;;;;;6241579;22;20450;-62
2021/12/03 12:46:54;;;;;;;4.78;1.23;;;5.60;99.90;;;;;;6241008;22;20377;-62
2021/12/03 14:38:31;;;;;;;4.15;1.80;;;4.80;99.90;;;;;;6236733;22;20011;-64
2021/12/03 14:46:19;;;;;;;5.75;2.33;;;4.70;99.90;;;;;;6238511;22;20494;-62
2021/12/03 14:48:55;;;;;;;3.85;2.00;;;4.70;99.90;;;;;;6236072;22;20008;-65
2021/12/03 14:54:30;;;;;;;6.03;2.10;;;4.60;99.90;;;;;;6236467;22;20019;-63
2021/12/03 14:57:12;;;;;;;3.28;2.10;;;4.60;99.90;;;;;;6236353;22;20458;-61
2021/12/03 14:59:42;;;;;;;5.35;2.08;;;4.60;99.90;;;;;;6236282;22;20091;-62
2021/12/03 15:07:16;;;;;;;6.30;2.17;;;4.60;99.90;;;;;;6235975;23;20008;-63
2021/12/03 15:09:44;;;;;;;3.40;2.25;;;4.60;99.90;;;;;;6237071;22;20019;-63
2021/12/03 15:25:28;;;;;;;5.28;3.00;;;4.70;99.90;;;;;;6141892;23;20009;-62
2021/12/03 15:33:53;;;;;;;4.55;2.60;;;4.70;99.90;;;;;;6235834;23;20008;-63
2021/12/03 15:39:05;;;;;;;4.63;3.00;;;4.70;99.90;;;;;;6207159;23;20009;-62
2021/12/03 16:08:15;;;;;;;6.28;3.63;;;4.80;99.90;;;;;;6238404;22;20012;-63
2021/12/03 16:13:43;;;;;;;5.40;3.75;;;4.70;99.90;;;;;;6239059;22;20019;-62
2021/12/03 16:46:22;;;;;;;6.57;4.47;;;4.90;99.90;;;;;;6238912;22;20011;-63
2021/12/03 16:53:54;;;;;;;9.60;5.85;;;4.90;99.90;;;;;;6215638;22;20039;-65
2021/12/03 16:56:27;;;;;;;8.23;5.28;;;4.90;99.90;;;;;;6239078;22;20446;-63
2021/12/03 16:59:00;;;;;;;9.80;5.20;;;4.90;99.90;;;;;;6237989;22;20014;-63
2021/12/03 17:01:41;;;;;;;8.50;5.40;;;4.90;99.90;;;;;;6240069;22;20012;-63
2021/12/03 17:09:56;;;;;;;11.55;6.05;;;4.90;99.90;;;;;;6245834;22;20454;-62
2021/12/03 17:21:07;;;;;;;7.95;4.97;;;5.00;99.90;;;;;;6242913;22;20000;-63
2021/12/03 17:47:48;;;;;;;9.32;4.88;;;5.10;99.90;;;;;;6240064;22;20139;-63
2021/12/03 17:50:37;;;;;;;9.10;5.82;;;5.10;99.90;;;;;;6238482;22;20027;-62
2021/12/03 17:58:44;;;;;;;8.63;5.68;;;5.00;99.90;;;;;;6240103;22;20012;-62
2021/12/03 18:01:30;;;;;;;9.13;5.47;;;5.10;99.90;;;;;;6226718;22;20016;-63
2021/12/03 18:04:02;;;;;;;10.20;5.22;;;5.10;99.90;;;;;;6234171;22;20004;-63
2021/12/03 18:09:22;;;;;;;6.88;5.03;;;5.20;99.90;;;;;;6238779;22;20027;-64
2021/12/03 18:56:54;;;;;;;9.27;5.18;;;5.10;99.90;;;;;;6234081;22;20008;-62
2021/12/03 18:59:24;;;;;;;10.73;6.03;;;5.20;99.90;;;;;;6236277;22;20016;-62
2021/12/03 19:01:50;;;;;;;8.95;5.88;;;5.20;99.90;;;;;;6235752;22;20016;-63
2021/12/03 19:04:33;;;;;;;10.10;5.72;;;5.20;99.90;;;;;;6237799;22;20075;-63
2021/12/03 19:07:09;;;;;;;9.88;5.65;;;5.20;99.90;;;;;;6236106;22;20021;-62
2021/12/03 19:09:42;;;;;;;9.73;6.07;;;5.10;99.90;;;;;;6237116;22;20008;-61
2021/12/03 19:12:14;;;;;;;9.27;5.70;;;5.10;99.90;;;;;;6236696;22;20020;-63
2021/12/03 19:14:48;;;;;;;9.45;5.70;;;5.10;99.90;;;;;;6236104;22;20062;-62
2021/12/03 19:17:16;;;;;;;10.43;6.60;;;5.10;99.90;;;;;;6236749;22;20004;-62
2021/12/03 19:19:44;;;;;;;12.70;6.78;;;5.10;99.90;;;;;;6237013;22;20007;-62
2021/12/03 19:22:11;;;;;;;11.15;6.55;;;5.10;99.90;;;;;;6236974;22;20089;-62
2021/12/03 19:24:37;;;;;;;14.88;7.20;;;5.10;99.90;;;;;;6237137;22;20001;-62
2021/12/03 19:27:03;;;;;;;11.43;6.30;;;5.00;99.90;;;;;;6236766;22;20015;-62
2021/12/03 19:29:32;;;;;;;15.98;7.60;;;5.00;99.90;;;;;;6239578;22;20092;-62
2021/12/03 19:31:57;;;;;;;11.48;7.00;;;5.00;99.90;;;;;;6238169;22;20477;-63
2021/12/03 19:34:24;;;;;;;13.93;7.60;;;5.00;99.90;;;;;;6237385;23;20012;-62
2021/12/03 19:36:50;;;;;;;11.45;7.05;;;4.90;99.90;;;;;;6237995;22;20517;-63
2021/12/03 19:39:18;;;;;;;12.18;7.50;;;4.90;99.90;;;;;;6239812;22;20078;-62
2021/12/03 19:41:50;;;;;;;10.25;6.55;;;5.00;99.90;;;;;;6239312;22;20350;-61
2021/12/03 19:44:20;;;;;;;10.00;6.15;;;5.00;99.90;;;;;;6239011;22;20008;-62
2021/12/03 19:46:49;;;;;;;12.87;7.70;;;4.90;99.90;;;;;;6238324;22;20062;-62
2021/12/03 19:49:32;;;;;;;14.32;6.90;;;5.00;99.90;;;;;;6238919;22;20070;-62
2021/12/03 19:52:06;;;;;;;10.88;6.13;;;4.90;99.90;;;;;;6238595;22;20027;-62
2021/12/03 19:54:31;;;;;;;12.70;7.30;;;5.00;99.90;;;;;;6238343;22;20031;-62
2021/12/03 19:56:57;;;;;;;12.73;7.13;;;4.90;99.90;;;;;;6237514;22;20016;-62
2021/12/03 19:59:23;;;;;;;12.20;7.00;;;5.00;99.90;;;;;;6239502;22;20443;-63
2021/12/03 20:01:48;;;;;;;11.20;6.63;;;4.90;99.90;;;;;;6237655;22;20015;-62
2021/12/03 20:04:15;;;;;;;12.88;7.03;;;4.90;99.90;;;;;;6239462;22;20338;-63
2021/12/03 20:06:44;;;;;;;11.15;6.53;;;4.90;99.90;;;;;;6238707;22;20455;-62
2021/12/03 20:09:17;;;;;;;13.48;6.45;;;4.90;99.90;;;;;;6238218;22;20312;-62
2021/12/03 20:11:52;;;;;;;10.45;6.47;;;4.90;99.90;;;;;;6239273;22;20069;-62
2021/12/03 20:14:19;;;;;;;9.52;6.15;;;5.00;99.90;;;;;;6236957;23;20120;-63